createdAt,value
2022-10-15T00:00:41.155Z,31.38
2022-10-15T00:02:43.077Z,30.33
2022-10-15T00:04:45.120Z,28.13
2022-10-15T00:06:48.054Z,29.42
2022-10-15T00:08:50.215Z,31.10
2022-10-15T00:10:52.118Z,34.13
2022-10-15T00:12:55.038Z,29.55
2022-10-15T00:14:56.939Z,28.45
2022-10-15T00:16:58.905Z,30.23
2022-10-15T00:19:00.959Z,26.10
2022-10-15T00:21:06.089Z,25.33
2022-10-15T00:23:08.035Z,26.40
2022-10-15T00:25:10.250Z,28.52
2022-10-15T00:27:12.155Z,27.02
2022-10-15T00:29:14.129Z,26.13
2022-10-15T00:31:18.184Z,26.98
2022-10-15T00:33:22.782Z,26.67
2022-10-15T00:35:25.730Z,28.45
2022-10-15T00:37:27.576Z,26.83
2022-10-15T00:39:29.389Z,26.67
2022-10-15T00:41:34.867Z,28.20
2022-10-15T00:43:52.543Z,26.75
2022-10-15T00:45:54.550Z,25.17
2022-10-15T00:47:56.717Z,27.40
2022-10-15T00:50:12.963Z,28.33
2022-10-15T00:52:26.019Z,27.92
2022-10-15T00:54:31.791Z,28.88
2022-10-15T00:56:35.781Z,30.15
2022-10-15T00:58:37.834Z,26.77
2022-10-15T01:00:39.722Z,27.48
2022-10-15T01:02:43.373Z,29.83
2022-10-15T01:04:45.996Z,28.73
2022-10-15T01:06:47.948Z,27.48
2022-10-15T01:08:49.997Z,29.50
2022-10-15T01:11:13.532Z,25.80
2022-10-15T01:13:24.641Z,27.30
2022-10-15T01:15:32.140Z,28.08
2022-10-15T01:17:35.020Z,27.95
2022-10-15T01:20:12.881Z,26.80
2022-10-15T01:22:27.998Z,27.27
2022-10-15T01:24:42.066Z,23.92
2022-10-15T01:26:52.811Z,25.33
2022-10-15T01:29:16.219Z,29.07
2022-10-15T01:31:26.802Z,23.42
2022-10-15T01:34:26.142Z,28.02
2022-10-15T01:36:40.795Z,25.92
2022-10-15T01:38:56.241Z,28.65
2022-10-15T01:41:06.848Z,32.30
2022-10-15T01:43:17.847Z,35.75
2022-10-15T01:45:26.283Z,35.38
2022-10-15T01:47:36.190Z,30.67
2022-10-15T01:49:44.466Z,33.55
2022-10-15T01:51:46.421Z,33.53
2022-10-15T01:53:50.355Z,34.13
2022-10-15T01:56:00.257Z,32.83
2022-10-15T01:58:04.283Z,32.53
2022-10-15T02:00:06.888Z,32.88
2022-10-15T02:02:08.923Z,27.52
2022-10-15T02:04:24.484Z,28.88
2022-10-15T02:06:34.921Z,28.35
2022-10-15T02:09:15.641Z,26.33
2022-10-15T02:11:19.176Z,30.33
2022-10-15T02:13:36.997Z,24.70
2022-10-15T02:15:50.861Z,26.02
2022-10-15T02:18:02.720Z,27.55
2022-10-15T02:20:16.099Z,27.95
2022-10-15T02:22:26.884Z,28.88
2022-10-15T02:24:35.639Z,27.73
2022-10-15T02:26:39.280Z,29.83
2022-10-15T02:28:45.392Z,35.85
2022-10-15T02:30:53.064Z,29.25
2022-10-15T02:32:58.231Z,28.13
2022-10-15T02:35:02.169Z,28.45
2022-10-15T02:37:06.191Z,30.48
2022-10-15T02:39:12.732Z,28.13
2022-10-15T02:41:14.823Z,29.00
2022-10-15T02:43:20.515Z,29.42
2022-10-15T02:45:22.485Z,30.40
2022-10-15T02:49:27.128Z,27.65
2022-10-15T02:51:32.615Z,31.00
2022-10-15T02:53:35.004Z,29.88
2022-10-15T02:55:38.201Z,29.38
2022-10-15T02:57:40.099Z,29.13
2022-10-15T02:59:42.437Z,30.30
2022-10-15T03:01:44.264Z,35.03
2022-10-15T03:03:46.179Z,33.17
2022-10-15T03:05:48.248Z,31.15
2022-10-15T03:07:51.143Z,30.23
2022-10-15T03:09:52.991Z,30.48
2022-10-15T03:11:54.915Z,35.22
2022-10-15T03:13:56.978Z,29.45
2022-10-15T03:15:58.846Z,29.17
2022-10-15T03:18:00.769Z,29.58
2022-10-15T03:20:04.445Z,28.15
2022-10-15T03:22:06.358Z,29.40
2022-10-15T03:24:08.246Z,28.13
2022-10-15T03:26:11.107Z,27.50
2022-10-15T03:28:12.889Z,36.10
2022-10-15T03:30:14.999Z,33.92
2022-10-15T03:32:16.881Z,31.27
2022-10-15T03:34:19.300Z,32.53
2022-10-15T03:36:21.084Z,28.83
2022-10-15T03:38:23.376Z,27.33
2022-10-15T03:40:26.572Z,30.08
2022-10-15T03:42:29.430Z,28.55
2022-10-15T03:44:31.571Z,27.70
2022-10-15T03:46:34.265Z,27.63
2022-10-15T03:48:38.402Z,30.85
2022-10-15T03:50:40.320Z,29.02
2022-10-15T03:52:44.089Z,27.00
2022-10-15T03:54:46.036Z,26.65
2022-10-15T03:56:49.944Z,24.70
2022-10-15T03:58:51.851Z,25.80
2022-10-15T04:00:53.712Z,26.95
2022-10-15T04:02:55.969Z,27.88
2022-10-15T04:04:59.037Z,27.08
2022-10-15T04:07:01.894Z,26.20
2022-10-15T04:09:03.841Z,26.85
2022-10-15T04:11:07.768Z,34.13
2022-10-15T04:13:09.699Z,26.35
2022-10-15T04:15:11.784Z,28.58
2022-10-15T04:17:13.655Z,26.65
2022-10-15T04:19:16.199Z,24.85
2022-10-15T04:21:18.127Z,28.67
2022-10-15T04:23:20.031Z,24.27
2022-10-15T04:25:22.071Z,25.27
2022-10-15T04:27:23.987Z,25.90
2022-10-15T04:29:25.861Z,27.73
2022-10-15T04:31:27.725Z,26.08
2022-10-15T04:33:29.760Z,29.30
2022-10-15T04:35:32.631Z,27.77
2022-10-15T04:37:35.120Z,26.92
2022-10-15T04:39:36.920Z,27.63
2022-10-15T04:41:38.846Z,27.95
2022-10-15T04:43:40.977Z,28.27
2022-10-15T04:45:43.852Z,29.17
2022-10-15T04:47:47.806Z,29.85
2022-10-15T04:49:51.674Z,28.13
2022-10-15T04:51:53.721Z,29.23
2022-10-15T04:53:56.002Z,30.35
2022-10-15T04:56:11.080Z,26.67
2022-10-15T04:58:13.527Z,25.00
2022-10-15T05:00:15.632Z,26.77
2022-10-15T05:02:17.497Z,24.55
2022-10-15T05:04:20.378Z,25.10
2022-10-15T05:06:23.265Z,27.70
2022-10-15T05:08:27.629Z,26.83
2022-10-15T05:10:32.313Z,23.23
2022-10-15T05:12:34.253Z,25.77
2022-10-15T05:14:36.128Z,27.08
2022-10-15T05:16:37.970Z,26.98
2022-10-15T05:18:41.646Z,27.90
2022-10-15T05:20:43.613Z,28.73
2022-10-15T05:22:45.502Z,26.40
2022-10-15T05:24:47.419Z,25.25
2022-10-15T05:26:49.299Z,27.17
2022-10-15T05:28:52.324Z,26.35
2022-10-15T05:30:56.808Z,27.42
2022-10-15T05:32:58.742Z,30.77
2022-10-15T05:35:02.580Z,29.70
2022-10-15T05:37:04.359Z,27.00
2022-10-15T05:39:10.739Z,26.38
2022-10-15T05:41:12.677Z,27.40
2022-10-15T05:43:14.501Z,24.67
2022-10-15T05:45:17.440Z,26.38
2022-10-15T05:47:19.276Z,25.83
2022-10-15T05:49:21.177Z,29.13
2022-10-15T05:51:26.258Z,29.08
2022-10-15T05:53:28.295Z,26.88
2022-10-15T05:55:30.630Z,23.80
2022-10-15T05:57:32.501Z,27.10
2022-10-15T05:59:34.356Z,25.42
2022-10-15T06:01:37.961Z,24.05
2022-10-15T06:03:41.198Z,28.70
2022-10-15T06:05:43.026Z,26.15
2022-10-15T06:07:45.826Z,24.33
2022-10-15T06:09:56.363Z,27.92
2022-10-15T06:11:58.216Z,27.08
2022-10-15T06:14:00.117Z,24.73
2022-10-15T06:16:03.889Z,25.23
2022-10-15T06:18:05.786Z,22.55
2022-10-15T06:20:08.043Z,22.67
2022-10-15T06:22:09.893Z,25.27
2022-10-15T06:24:11.850Z,25.30
2022-10-15T06:26:13.802Z,24.27
2022-10-15T06:28:15.909Z,22.50
2022-10-15T06:30:21.760Z,27.70
2022-10-15T06:32:23.678Z,25.58
2022-10-15T06:34:25.547Z,23.77
2022-10-15T06:36:27.461Z,23.52
2022-10-15T06:38:33.197Z,25.92
2022-10-15T06:40:35.188Z,22.17
2022-10-15T06:42:37.221Z,25.63
2022-10-15T06:44:40.104Z,23.42
2022-10-15T06:46:42.128Z,23.70
2022-10-15T06:48:45.068Z,26.42
2022-10-15T06:50:47.002Z,23.73
2022-10-15T06:52:50.856Z,24.38
2022-10-15T06:54:53.737Z,24.15
2022-10-15T06:56:56.412Z,22.67
2022-10-15T06:58:58.314Z,22.52
2022-10-15T07:01:06.312Z,24.38
2022-10-15T07:03:09.434Z,21.48
2022-10-15T07:05:12.351Z,24.95
2022-10-15T07:07:14.416Z,24.45
2022-10-15T07:09:16.518Z,24.13
2022-10-15T07:11:19.588Z,22.30
2022-10-15T07:13:21.510Z,23.88
2022-10-15T07:15:24.399Z,23.00
2022-10-15T07:17:28.940Z,25.75
2022-10-15T07:19:30.791Z,21.88
2022-10-15T07:21:33.842Z,23.75
2022-10-15T07:23:35.781Z,23.15
2022-10-15T07:25:39.061Z,24.17
2022-10-15T07:27:41.303Z,22.48
2022-10-15T07:29:43.250Z,21.83
2022-10-15T07:33:52.886Z,20.48
2022-10-15T07:35:54.828Z,26.23
2022-10-15T07:38:01.375Z,20.42
2022-10-15T07:40:03.397Z,23.38
2022-10-15T07:42:05.417Z,22.48
2022-10-15T07:44:08.321Z,22.77
2022-10-15T07:46:10.332Z,20.45
2022-10-15T07:48:12.181Z,23.27
2022-10-15T07:50:14.118Z,20.95
2022-10-15T07:52:16.067Z,24.58
2022-10-15T07:54:17.981Z,21.85
2022-10-15T07:56:20.899Z,20.63
2022-10-15T07:58:22.865Z,21.63
2022-10-15T08:00:25.088Z,22.35
2022-10-15T08:02:27.292Z,24.75
2022-10-15T08:04:29.288Z,20.88
2022-10-15T08:06:33.159Z,20.38
2022-10-15T08:08:36.253Z,21.88
2022-10-15T08:10:38.304Z,21.80
2022-10-15T08:12:40.225Z,23.33
2022-10-15T08:14:42.157Z,22.30
2022-10-15T08:16:43.989Z,20.38
2022-10-15T08:18:46.555Z,22.13
2022-10-15T08:20:48.517Z,21.77
2022-10-15T08:22:50.367Z,19.20
2022-10-15T08:24:52.768Z,18.85
2022-10-15T08:26:54.632Z,22.23
2022-10-15T08:28:56.519Z,21.85
2022-10-15T08:31:02.820Z,20.52
2022-10-15T08:33:07.315Z,18.13
2022-10-15T08:35:09.380Z,19.52
2022-10-15T08:37:11.323Z,17.60
2022-10-15T08:39:13.405Z,16.63
2022-10-15T08:41:32.727Z,19.92
2022-10-15T08:43:41.169Z,19.55
2022-10-15T08:45:46.101Z,19.58
2022-10-15T08:48:00.775Z,21.92
2022-10-15T08:50:26.057Z,16.83
2022-10-15T08:52:46.414Z,18.48
2022-10-15T08:54:48.634Z,21.00
2022-10-15T08:57:15.655Z,18.75
2022-10-15T08:59:49.838Z,17.60
2022-10-15T09:01:59.375Z,17.27
2022-10-15T09:04:14.893Z,19.63
2022-10-15T09:06:37.923Z,18.55
2022-10-15T09:08:56.682Z,16.88
2022-10-15T09:11:24.341Z,19.38
2022-10-15T09:13:40.890Z,18.33
2022-10-15T09:15:54.338Z,16.20
2022-10-15T09:17:58.155Z,18.08
2022-10-15T09:20:05.858Z,17.00
2022-10-15T09:22:14.692Z,17.98
2022-10-15T09:24:28.102Z,18.40
2022-10-15T09:26:52.321Z,17.75
2022-10-15T09:29:05.702Z,16.42
2022-10-15T09:31:15.092Z,15.30
2022-10-15T09:33:35.667Z,17.30
2022-10-15T09:36:04.796Z,17.40
2022-10-15T09:38:14.367Z,16.73
2022-10-15T09:41:16.898Z,20.10
2022-10-15T09:43:28.475Z,14.93
2022-10-15T09:47:43.242Z,17.08
2022-10-15T09:49:47.151Z,16.95
2022-10-15T09:52:18.593Z,24.10
2022-10-15T09:54:56.519Z,15.35
2022-10-15T09:56:59.411Z,16.75
2022-10-15T09:59:02.003Z,18.35
2022-10-15T10:01:19.365Z,20.25
2022-10-15T10:03:24.345Z,19.38
2022-10-15T10:05:36.025Z,16.88
2022-10-15T10:07:38.556Z,17.70
2022-10-15T10:10:23.939Z,17.50
2022-10-15T10:12:29.231Z,16.45
2022-10-15T10:14:40.603Z,22.85
2022-10-15T10:17:05.989Z,18.25
2022-10-15T10:19:16.666Z,17.75
2022-10-15T10:21:30.356Z,20.03
2022-10-15T10:23:35.257Z,17.27
2022-10-15T10:25:43.307Z,16.30
2022-10-15T10:27:50.888Z,18.58
2022-10-15T10:29:59.948Z,16.25
2022-10-15T10:32:17.906Z,14.48
2022-10-15T10:34:33.142Z,19.25
2022-10-15T10:36:39.490Z,14.93
2022-10-15T10:38:56.704Z,13.07
2022-10-15T10:41:12.306Z,18.17
2022-10-15T10:43:16.903Z,13.73
2022-10-15T10:45:22.899Z,19.40
2022-10-15T10:47:27.307Z,15.73
2022-10-15T10:49:45.153Z,16.13
2022-10-15T10:51:54.336Z,14.85
2022-10-15T10:54:06.492Z,14.95
2022-10-15T10:56:11.770Z,12.88
2022-10-15T10:58:24.969Z,16.98
2022-10-15T11:00:40.930Z,15.90
2022-10-15T11:02:44.151Z,18.58
2022-10-15T11:04:48.231Z,15.50
2022-10-15T11:07:08.851Z,17.85
2022-10-15T11:09:20.663Z,14.02
2022-10-15T11:11:47.013Z,15.40
2022-10-15T11:14:17.892Z,17.35
2022-10-15T11:16:46.592Z,13.70
2022-10-15T11:19:59.560Z,19.42
2022-10-15T11:22:22.045Z,14.43
2022-10-15T11:24:55.612Z,14.60
2022-10-15T11:27:35.844Z,14.18
2022-10-15T11:29:48.553Z,12.65
2022-10-15T11:32:17.364Z,13.18
2022-10-15T11:34:23.989Z,13.40
2022-10-15T11:37:19.109Z,12.10
2022-10-15T11:39:36.961Z,11.82
2022-10-15T11:42:18.063Z,11.35
2022-10-15T11:44:25.353Z,16.73
2022-10-15T11:46:55.317Z,12.43
2022-10-15T11:49:27.675Z,16.25
2022-10-15T11:51:58.947Z,13.63
2022-10-15T11:54:23.520Z,13.68
2022-10-15T11:56:38.870Z,14.27
2022-10-15T11:59:01.176Z,12.88
2022-10-15T12:01:15.843Z,10.80
2022-10-15T12:03:26.196Z,11.07
2022-10-15T12:05:49.176Z,13.18
2022-10-15T12:07:51.075Z,13.35
2022-10-15T12:10:01.594Z,14.85
2022-10-15T12:12:40.830Z,6.78
2022-10-15T12:15:01.191Z,7.18
2022-10-15T12:17:12.293Z,8.43
2022-10-15T12:19:45.442Z,4.78
2022-10-15T12:21:51.116Z,4.03
2022-10-15T12:23:55.441Z,4.47
2022-10-15T12:25:58.451Z,4.65
2022-10-15T12:28:05.896Z,3.13
2022-10-15T12:30:11.897Z,3.58
2022-10-15T12:32:30.613Z,17.00
2022-10-15T12:34:39.971Z,16.02
2022-10-15T12:36:42.417Z,13.02
2022-10-15T12:38:58.676Z,12.02
2022-10-15T12:41:10.000Z,13.50
2022-10-15T12:43:17.842Z,11.23
2022-10-15T12:45:28.227Z,10.82
2022-10-15T12:47:51.498Z,12.10
2022-10-15T12:50:06.994Z,10.70
2022-10-15T12:52:46.465Z,14.10
2022-10-15T12:54:52.670Z,12.48
2022-10-15T12:56:55.627Z,12.82
2022-10-15T12:58:57.518Z,17.52
2022-10-15T13:01:22.995Z,13.35
2022-10-15T13:03:39.414Z,13.13
2022-10-15T13:05:42.841Z,13.70
2022-10-15T13:07:50.424Z,17.30
2022-10-15T13:09:53.403Z,19.02
2022-10-15T13:11:57.502Z,16.05
2022-10-15T13:14:11.813Z,14.15
2022-10-15T13:16:14.835Z,18.20
2022-10-15T13:18:17.290Z,23.48
2022-10-15T13:20:30.183Z,16.67
2022-10-15T13:22:36.779Z,15.32
2022-10-15T13:24:45.724Z,20.55
2022-10-15T13:26:50.420Z,13.13
2022-10-15T13:28:55.272Z,19.45
2022-10-15T13:30:58.366Z,13.55
2022-10-15T13:33:01.322Z,14.40
2022-10-15T13:35:11.157Z,13.95
2022-10-15T13:37:18.683Z,16.75
2022-10-15T13:39:40.918Z,17.13
2022-10-15T13:41:50.364Z,13.50
2022-10-15T13:43:55.148Z,20.70
2022-10-15T13:46:17.246Z,14.25
2022-10-15T13:48:32.912Z,12.80
2022-10-15T13:50:40.590Z,12.50
2022-10-15T13:53:01.993Z,13.82
2022-10-15T13:55:22.006Z,13.23
2022-10-15T13:57:35.063Z,14.63
2022-10-15T13:59:46.517Z,13.98
2022-10-15T14:04:03.691Z,33.38
2022-10-15T14:06:24.706Z,23.75
2022-10-15T14:08:35.819Z,17.70
2022-10-15T14:10:37.759Z,18.67
2022-10-15T14:12:41.739Z,27.58
2022-10-15T14:14:49.637Z,16.35
2022-10-15T14:16:52.687Z,32.67
2022-10-15T14:19:12.267Z,13.65
2022-10-15T14:21:18.467Z,11.77
2022-10-15T14:23:25.050Z,18.15
2022-10-15T14:25:43.199Z,14.70
2022-10-15T14:27:46.525Z,14.05
2022-10-15T14:29:52.739Z,11.85
2022-10-15T14:31:56.269Z,13.80
2022-10-15T14:33:59.537Z,17.95
2022-10-15T14:36:06.915Z,13.88
2022-10-15T14:38:09.696Z,15.85
2022-10-15T14:40:16.975Z,13.48
2022-10-15T14:42:33.067Z,11.63
2022-10-15T14:44:42.882Z,13.20
2022-10-15T14:46:51.696Z,20.65
2022-10-15T14:49:19.431Z,13.20
2022-10-15T14:51:26.231Z,14.25
2022-10-15T14:53:31.242Z,12.32
2022-10-15T14:55:43.571Z,14.77
2022-10-15T14:57:46.109Z,20.80
2022-10-15T14:59:52.084Z,14.70
2022-10-15T15:02:01.644Z,16.73
2022-10-15T15:04:34.191Z,20.58
2022-10-15T15:06:36.044Z,15.13
2022-10-15T15:08:42.117Z,14.85
2022-10-15T15:10:51.216Z,22.13
2022-10-15T15:12:58.879Z,20.38
2022-10-15T15:15:02.781Z,18.25
2022-10-15T15:17:05.823Z,18.85
2022-10-15T15:19:12.718Z,19.58
2022-10-15T15:21:33.501Z,16.60
2022-10-15T15:23:35.752Z,17.33
2022-10-15T15:25:37.721Z,18.58
2022-10-15T15:27:42.836Z,15.60
2022-10-15T15:29:45.482Z,16.75
2022-10-15T15:31:54.221Z,13.75
2022-10-15T15:34:02.223Z,13.93
2022-10-15T15:36:20.594Z,16.13
2022-10-15T15:38:31.547Z,15.32
2022-10-15T15:40:33.715Z,18.00
2022-10-15T15:42:37.878Z,19.42
2022-10-15T15:44:40.027Z,16.45
2022-10-15T15:46:56.692Z,17.38
2022-10-15T15:49:02.381Z,18.20
2022-10-15T15:51:26.904Z,19.02
2022-10-15T15:53:28.833Z,20.00
2022-10-15T15:55:30.855Z,20.27
2022-10-15T15:57:41.083Z,19.98
2022-10-15T15:59:50.196Z,15.05
2022-10-15T16:02:01.366Z,15.23
2022-10-15T16:04:20.963Z,17.42
2022-10-15T16:06:23.019Z,15.98
2022-10-15T16:08:30.002Z,14.07
2022-10-15T16:10:34.804Z,20.90
2022-10-15T16:12:41.542Z,16.65
2022-10-15T16:15:08.996Z,14.15
2022-10-15T16:17:20.686Z,17.00
2022-10-15T16:19:28.750Z,17.63
2022-10-15T16:21:30.852Z,20.40
2022-10-15T16:23:33.783Z,15.85
2022-10-15T16:25:35.815Z,16.88
2022-10-15T16:27:45.864Z,18.00
2022-10-15T16:29:47.917Z,15.18
2022-10-15T16:31:51.843Z,19.00
2022-10-15T16:33:55.780Z,16.35
2022-10-15T16:35:57.713Z,14.90
2022-10-15T16:38:01.879Z,21.02
2022-10-15T16:40:04.474Z,18.48
2022-10-15T16:42:06.775Z,18.45
2022-10-15T16:44:08.821Z,16.02
2022-10-15T16:46:25.615Z,18.23
2022-10-15T16:48:27.991Z,16.70
2022-10-15T16:50:39.197Z,18.70
2022-10-15T16:52:58.431Z,19.55
2022-10-15T16:55:01.406Z,20.40
2022-10-15T16:57:03.532Z,18.33
2022-10-15T16:59:11.213Z,17.13
2022-10-15T17:01:26.636Z,20.33
2022-10-15T17:03:30.246Z,19.60
2022-10-15T17:05:33.175Z,19.83
2022-10-15T17:07:38.760Z,19.42
2022-10-15T17:10:00.788Z,19.05
2022-10-15T17:12:03.450Z,21.08
2022-10-15T17:14:13.077Z,21.92
2022-10-15T17:16:24.532Z,19.23
2022-10-15T17:18:28.523Z,24.58
2022-10-15T17:20:35.581Z,20.45
2022-10-15T17:22:38.763Z,27.60
2022-10-15T17:24:50.009Z,24.30
2022-10-15T17:26:58.450Z,28.60
2022-10-15T17:29:01.082Z,24.10
2022-10-15T17:31:23.852Z,21.55
2022-10-15T17:33:27.932Z,21.65
2022-10-15T17:35:40.947Z,24.50
2022-10-15T17:37:56.711Z,22.55
2022-10-15T17:40:03.996Z,20.83
2022-10-15T17:42:07.179Z,21.17
2022-10-15T17:44:15.549Z,22.48
2022-10-15T17:46:24.587Z,21.85
2022-10-15T17:48:28.683Z,23.67
2022-10-15T17:50:31.360Z,25.35
2022-10-15T17:52:34.821Z,22.02
2022-10-15T17:54:37.310Z,22.10
2022-10-15T17:56:40.606Z,20.45
2022-10-15T17:58:43.557Z,23.55
2022-10-15T18:00:58.514Z,22.83
2022-10-15T18:03:01.860Z,21.33
2022-10-15T18:05:05.974Z,21.77
2022-10-15T18:07:10.346Z,27.35
2022-10-15T18:09:28.389Z,22.33
2022-10-15T18:11:34.475Z,20.73
2022-10-15T18:13:38.943Z,22.50
2022-10-15T18:15:49.381Z,21.23
2022-10-15T18:18:04.919Z,22.90
2022-10-15T18:20:10.745Z,19.00
2022-10-15T18:22:20.583Z,22.30
2022-10-15T18:24:28.975Z,21.73
2022-10-15T18:26:31.612Z,18.60
2022-10-15T18:28:51.853Z,17.80
2022-10-15T18:30:55.144Z,18.88
2022-10-15T18:33:01.642Z,18.88
2022-10-15T18:35:05.459Z,18.77
2022-10-15T18:37:07.815Z,26.02
2022-10-15T18:39:19.418Z,18.65
2022-10-15T18:41:33.711Z,18.02
2022-10-15T18:43:35.739Z,21.48
2022-10-15T18:45:37.892Z,19.55
2022-10-15T18:47:40.718Z,20.83
2022-10-15T18:49:43.700Z,25.58
2022-10-15T18:51:46.870Z,22.38
2022-10-15T18:53:49.912Z,21.85
2022-10-15T18:55:51.816Z,23.55
2022-10-15T18:57:54.942Z,25.17
2022-10-15T18:59:57.340Z,22.55
2022-10-15T19:01:59.752Z,22.48
2022-10-15T19:04:05.510Z,24.25
2022-10-15T19:06:07.953Z,19.00
2022-10-15T19:08:10.999Z,18.55
2022-10-15T19:10:15.250Z,20.75
2022-10-15T19:12:19.634Z,23.45
2022-10-15T19:14:23.179Z,18.75
2022-10-15T19:16:26.224Z,20.95
2022-10-15T19:18:28.705Z,20.25
2022-10-15T19:20:33.279Z,23.25
2022-10-15T19:22:38.968Z,19.55
2022-10-15T19:24:40.883Z,19.42
2022-10-15T19:26:43.323Z,22.63
2022-10-15T19:28:47.235Z,18.08
2022-10-15T19:31:01.041Z,21.98
2022-10-15T19:33:07.989Z,19.25
2022-10-15T19:35:09.922Z,21.45
2022-10-15T19:37:12.256Z,19.65
2022-10-15T19:39:23.797Z,23.45
2022-10-15T19:41:25.854Z,23.15
2022-10-15T19:43:28.123Z,22.20
2022-10-15T19:45:30.880Z,19.52
2022-10-15T19:47:32.899Z,20.58
2022-10-15T19:49:34.985Z,20.75
2022-10-15T19:51:36.899Z,19.83
2022-10-15T19:53:39.001Z,18.85
2022-10-15T19:55:41.032Z,20.38
2022-10-15T19:57:44.386Z,24.63
2022-10-15T19:59:46.481Z,25.27
2022-10-15T20:01:48.829Z,22.90
2022-10-15T20:03:51.418Z,20.10
2022-10-15T20:05:53.413Z,23.42
2022-10-15T20:07:55.522Z,22.67
2022-10-15T20:09:57.526Z,27.48
2022-10-15T20:11:59.483Z,24.13
2022-10-15T20:14:01.863Z,24.98
2022-10-15T20:16:06.682Z,22.40
2022-10-15T20:18:10.070Z,23.98
2022-10-15T20:20:11.919Z,23.73
2022-10-15T20:22:14.001Z,23.50
2022-10-15T20:24:16.127Z,19.50
2022-10-15T20:26:19.039Z,23.23
2022-10-15T20:28:21.126Z,23.63
2022-10-15T20:30:25.356Z,21.77
2022-10-15T20:32:34.846Z,19.83
2022-10-15T20:34:37.098Z,18.63
2022-10-15T20:36:41.555Z,21.63
2022-10-15T20:39:08.997Z,21.15
2022-10-15T20:41:14.065Z,20.75
2022-10-15T20:43:16.997Z,17.40
2022-10-15T20:45:20.462Z,23.58
2022-10-15T20:47:24.274Z,21.98
2022-10-15T20:49:35.602Z,22.90
2022-10-15T20:51:41.556Z,20.90
2022-10-15T20:53:45.675Z,19.80
2022-10-15T20:55:47.684Z,22.40
2022-10-15T20:57:50.155Z,22.27
2022-10-15T20:59:52.023Z,20.55
2022-10-15T21:01:53.954Z,20.08
2022-10-15T21:03:55.933Z,18.05
2022-10-15T21:05:57.900Z,22.50
2022-10-15T21:08:00.562Z,18.52
2022-10-15T21:10:02.643Z,19.02
2022-10-15T21:12:06.109Z,19.88
2022-10-15T21:14:08.179Z,23.40
2022-10-15T21:16:10.371Z,17.05
2022-10-15T21:18:13.430Z,19.92
2022-10-15T21:20:15.537Z,16.50
2022-10-15T21:22:17.442Z,17.80
2022-10-15T21:24:19.548Z,21.08
2022-10-15T21:26:22.604Z,20.02
2022-10-15T21:28:26.545Z,21.63
2022-10-15T21:30:28.534Z,17.85
2022-10-15T21:32:30.497Z,17.25
2022-10-15T21:34:32.448Z,16.98
2022-10-15T21:36:34.409Z,20.10
2022-10-15T21:38:36.291Z,21.88
2022-10-15T21:40:38.244Z,18.08
2022-10-15T21:42:40.501Z,17.65
2022-10-15T21:44:42.495Z,17.58
2022-10-15T21:46:47.688Z,19.52
2022-10-15T21:48:50.213Z,19.27
2022-10-15T21:50:52.113Z,18.88
2022-10-15T21:52:55.132Z,17.30
2022-10-15T21:54:57.187Z,18.15
2022-10-15T21:57:01.014Z,17.73
2022-10-15T21:59:03.839Z,19.75
2022-10-15T22:01:22.475Z,19.20
2022-10-15T22:03:25.460Z,20.67
2022-10-15T22:05:27.424Z,18.50
2022-10-15T22:07:29.432Z,17.63
2022-10-15T22:09:31.448Z,18.90
2022-10-15T22:11:36.611Z,21.10
2022-10-15T22:13:39.087Z,19.92
2022-10-15T22:15:41.008Z,20.67
2022-10-15T22:17:43.029Z,16.08
2022-10-15T22:19:46.006Z,14.75
2022-10-15T22:21:49.083Z,16.42
2022-10-15T22:23:56.130Z,15.38
2022-10-15T22:25:59.342Z,14.18
2022-10-15T22:28:01.339Z,18.70
2022-10-15T22:30:04.951Z,13.32
2022-10-15T22:32:07.109Z,12.75
2022-10-15T22:34:09.005Z,15.57
2022-10-15T22:36:19.476Z,11.57
2022-10-15T22:38:21.481Z,13.75
2022-10-15T22:40:24.380Z,11.45
2022-10-15T22:42:26.478Z,12.80
2022-10-15T22:44:28.682Z,13.80
2022-10-15T22:46:34.304Z,12.88
2022-10-15T22:48:38.781Z,14.07
2022-10-15T22:50:41.075Z,8.60
2022-10-15T22:52:42.878Z,12.05
2022-10-15T22:54:45.741Z,9.77
2022-10-15T22:56:48.101Z,8.45
2022-10-15T22:58:51.146Z,9.57
2022-10-15T23:00:54.089Z,9.30
2022-10-15T23:02:57.046Z,12.30
2022-10-15T23:04:58.939Z,10.38
2022-10-15T23:07:01.791Z,12.02
2022-10-15T23:09:05.380Z,13.32
2022-10-15T23:11:12.786Z,11.20
2022-10-15T23:13:16.301Z,9.07
2022-10-15T23:15:19.124Z,13.02
2022-10-15T23:17:21.094Z,10.07
2022-10-15T23:19:23.781Z,10.00
2022-10-15T23:21:33.588Z,13.18
2022-10-15T23:23:35.413Z,10.80
2022-10-15T23:25:38.653Z,10.13
2022-10-15T23:27:41.466Z,12.80
2022-10-15T23:29:43.402Z,13.63
2022-10-15T23:31:48.213Z,11.45
2022-10-15T23:33:51.209Z,9.32
2022-10-15T23:35:58.234Z,10.10
2022-10-15T23:38:00.179Z,10.73
2022-10-15T23:40:02.021Z,10.65
2022-10-15T23:42:04.022Z,10.95
2022-10-15T23:44:09.538Z,11.63
2022-10-15T23:46:14.321Z,11.73
2022-10-15T23:48:16.271Z,11.77
2022-10-15T23:50:18.092Z,11.63
2022-10-15T23:52:21.098Z,12.88
2022-10-15T23:54:23.002Z,12.05
2022-10-15T23:56:26.047Z,10.93
2022-10-15T23:58:27.917Z,9.95
